createdAt,value
2023-03-31T00:00:29.994Z,9.85
2023-03-31T00:01:29.983Z,9.81
2023-03-31T00:02:30.054Z,9.77
2023-03-31T00:03:30.415Z,9.77
2023-03-31T00:04:29.959Z,9.75
2023-03-31T00:05:29.957Z,9.70
2023-03-31T00:06:29.941Z,9.75
2023-03-31T00:07:29.925Z,9.73
2023-03-31T00:08:31.010Z,9.75
2023-03-31T00:09:29.931Z,9.77
2023-03-31T00:10:29.918Z,9.78
2023-03-31T00:11:29.888Z,9.80
2023-03-31T00:12:29.886Z,9.78
2023-03-31T00:13:30.094Z,9.83
2023-03-31T00:14:29.867Z,9.75
2023-03-31T00:15:29.854Z,9.78
2023-03-31T00:16:29.926Z,9.75
2023-03-31T00:17:29.841Z,9.80
2023-03-31T00:18:30.557Z,9.75
2023-03-31T00:19:29.812Z,9.78
2023-03-31T00:20:29.825Z,9.83
2023-03-31T00:21:29.993Z,9.83
2023-03-31T00:22:29.796Z,9.78
2023-03-31T00:23:30.319Z,9.77
2023-03-31T00:24:29.773Z,9.77
2023-03-31T00:25:29.759Z,9.73
2023-03-31T00:26:29.757Z,9.73
2023-03-31T00:27:29.735Z,9.77
2023-03-31T00:28:30.616Z,9.77
2023-03-31T00:29:29.724Z,9.73
2023-03-31T00:30:29.714Z,9.78
2023-03-31T00:31:29.746Z,9.75
2023-03-31T00:32:29.707Z,9.72
2023-03-31T00:33:30.051Z,9.75
2023-03-31T00:34:29.681Z,9.73
2023-03-31T00:35:29.664Z,9.80
2023-03-31T00:36:29.675Z,9.77
2023-03-31T00:37:29.643Z,9.81
2023-03-31T00:38:30.618Z,9.83
2023-03-31T00:39:29.623Z,9.78
2023-03-31T00:40:29.623Z,9.83
2023-03-31T00:41:29.633Z,9.81
2023-03-31T00:42:29.606Z,9.87
2023-03-31T00:43:29.931Z,9.83
2023-03-31T00:44:29.594Z,9.84
2023-03-31T00:45:29.586Z,9.85
2023-03-31T00:46:29.615Z,9.81
2023-03-31T00:47:29.609Z,9.81
2023-03-31T00:48:29.937Z,9.81
2023-03-31T00:49:29.540Z,9.81
2023-03-31T00:50:29.540Z,9.78
2023-03-31T00:51:29.544Z,9.80
2023-03-31T00:52:29.512Z,9.81
2023-03-31T00:53:29.930Z,9.80
2023-03-31T00:54:29.502Z,9.87
2023-03-31T00:55:29.479Z,9.85
2023-03-31T00:56:29.475Z,9.90
2023-03-31T00:57:29.495Z,9.91
2023-03-31T00:58:30.177Z,9.91
2023-03-31T00:59:29.449Z,9.93
2023-03-31T01:00:29.461Z,9.90
2023-03-31T01:01:29.476Z,9.93
2023-03-31T01:02:29.466Z,9.94
2023-03-31T01:03:30.210Z,9.93
2023-03-31T01:04:29.403Z,9.99
2023-03-31T01:05:29.400Z,9.99
2023-03-31T01:06:29.390Z,10.01
2023-03-31T01:07:29.384Z,10.01
2023-03-31T01:08:29.753Z,10.06
2023-03-31T01:09:29.358Z,10.08
2023-03-31T01:10:29.353Z,10.06
2023-03-31T01:11:29.337Z,10.06
2023-03-31T01:12:29.351Z,10.06
2023-03-31T01:13:29.332Z,10.08
2023-03-31T01:14:29.317Z,10.05
2023-03-31T01:15:29.298Z,10.06
2023-03-31T01:16:29.382Z,10.08
2023-03-31T01:17:29.498Z,10.05
2023-03-31T01:18:29.675Z,10.08
2023-03-31T01:19:29.261Z,10.03
2023-03-31T01:20:29.261Z,10.06
2023-03-31T01:21:29.239Z,10.08
2023-03-31T01:22:29.253Z,10.03
2023-03-31T01:23:29.955Z,10.02
2023-03-31T01:24:29.226Z,10.02
2023-03-31T01:25:29.199Z,9.99
2023-03-31T01:26:29.203Z,9.93
2023-03-31T01:27:29.194Z,9.96
2023-03-31T01:28:29.980Z,9.88
2023-03-31T01:29:29.212Z,9.88
2023-03-31T01:30:29.162Z,9.88
2023-03-31T01:31:29.219Z,9.84
2023-03-31T01:32:29.205Z,9.81
2023-03-31T01:33:29.976Z,9.83
2023-03-31T01:34:29.164Z,9.80
2023-03-31T01:35:29.117Z,9.73
2023-03-31T01:36:29.151Z,9.73
2023-03-31T01:37:29.092Z,9.72
2023-03-31T01:38:29.577Z,9.72
2023-03-31T01:39:29.082Z,9.70
2023-03-31T01:40:29.073Z,9.69
2023-03-31T01:41:29.066Z,9.69
2023-03-31T01:42:29.057Z,9.66
2023-03-31T01:43:29.397Z,9.63
2023-03-31T01:44:29.048Z,9.65
2023-03-31T01:45:29.022Z,9.66
2023-03-31T01:46:29.083Z,9.66
2023-03-31T01:47:29.045Z,9.69
2023-03-31T01:48:29.317Z,9.62
2023-03-31T01:49:28.983Z,9.69
2023-03-31T01:50:28.989Z,9.69
2023-03-31T01:51:28.968Z,9.72
2023-03-31T01:52:29.023Z,9.70
2023-03-31T01:53:29.326Z,9.67
2023-03-31T01:54:28.945Z,9.66
2023-03-31T01:55:28.932Z,9.69
2023-03-31T01:56:28.935Z,9.67
2023-03-31T01:57:29.013Z,9.66
2023-03-31T01:58:29.259Z,9.66
2023-03-31T01:59:28.895Z,9.70
2023-03-31T02:00:28.888Z,9.72
2023-03-31T02:01:28.908Z,9.73
2023-03-31T02:02:28.963Z,9.73
2023-03-31T02:03:29.755Z,9.78
2023-03-31T02:04:28.850Z,9.75
2023-03-31T02:05:28.856Z,9.77
2023-03-31T02:06:28.834Z,9.73
2023-03-31T02:07:28.818Z,9.78
2023-03-31T02:08:29.281Z,9.78
2023-03-31T02:09:28.801Z,9.80
2023-03-31T02:10:28.818Z,9.77
2023-03-31T02:11:28.788Z,9.77
2023-03-31T02:12:28.771Z,9.77
2023-03-31T02:13:29.656Z,9.81
2023-03-31T02:14:28.762Z,9.80
2023-03-31T02:15:28.757Z,9.80
2023-03-31T02:16:28.788Z,9.81
2023-03-31T02:17:28.738Z,9.81
2023-03-31T02:18:29.015Z,9.78
2023-03-31T02:19:28.701Z,9.83
2023-03-31T02:20:28.698Z,9.81
2023-03-31T02:21:28.685Z,9.80
2023-03-31T02:22:28.681Z,9.85
2023-03-31T02:23:29.347Z,9.84
2023-03-31T02:24:28.662Z,9.88
2023-03-31T02:25:28.644Z,9.88
2023-03-31T02:26:28.639Z,9.84
2023-03-31T02:27:28.621Z,9.85
2023-03-31T02:28:29.460Z,9.88
2023-03-31T02:29:28.617Z,9.90
2023-03-31T02:30:28.605Z,9.88
2023-03-31T02:31:28.600Z,9.90
2023-03-31T02:32:28.625Z,9.91
2023-03-31T02:33:29.291Z,9.93
2023-03-31T02:34:28.566Z,9.91
2023-03-31T02:35:28.590Z,9.91
2023-03-31T02:36:28.548Z,9.90
2023-03-31T02:37:28.531Z,9.90
2023-03-31T02:38:28.912Z,9.94
2023-03-31T02:39:28.520Z,9.98
2023-03-31T02:40:28.511Z,9.94
2023-03-31T02:41:28.504Z,9.98
2023-03-31T02:42:28.489Z,9.96
2023-03-31T02:43:29.374Z,9.98
2023-03-31T02:44:28.472Z,9.98
2023-03-31T02:45:28.493Z,9.98
2023-03-31T02:46:28.510Z,9.94
2023-03-31T02:47:28.471Z,10.01
2023-03-31T02:48:28.793Z,9.96
2023-03-31T02:49:28.427Z,9.99
2023-03-31T02:50:28.421Z,9.99
2023-03-31T02:51:28.446Z,9.99
2023-03-31T02:52:28.405Z,9.98
2023-03-31T02:53:29.160Z,10.01
2023-03-31T02:54:28.376Z,9.99
2023-03-31T02:55:28.366Z,10.03
2023-03-31T02:56:28.355Z,10.01
2023-03-31T02:57:28.459Z,9.98
2023-03-31T02:58:28.336Z,10.01
2023-03-31T02:59:28.680Z,10.03
2023-03-31T03:00:28.322Z,9.99
2023-03-31T03:01:28.388Z,9.98
2023-03-31T03:02:28.393Z,10.01
2023-03-31T03:03:28.342Z,9.99
2023-03-31T03:04:28.567Z,9.98
2023-03-31T03:05:28.274Z,9.98
2023-03-31T03:06:28.262Z,10.01
2023-03-31T03:07:28.256Z,9.98
2023-03-31T03:08:28.241Z,9.98
2023-03-31T03:09:28.569Z,9.99
2023-03-31T03:10:28.223Z,9.98
2023-03-31T03:11:28.236Z,9.96
2023-03-31T03:12:28.205Z,9.99
2023-03-31T03:13:28.208Z,9.98
2023-03-31T03:14:28.504Z,9.96
2023-03-31T03:15:28.180Z,9.98
2023-03-31T03:16:28.196Z,9.94
2023-03-31T03:17:28.229Z,9.91
2023-03-31T03:18:28.152Z,9.91
2023-03-31T03:19:28.492Z,9.93
2023-03-31T03:20:28.138Z,9.90
2023-03-31T03:21:28.139Z,9.88
2023-03-31T03:22:28.119Z,9.85
2023-03-31T03:23:28.106Z,9.83
2023-03-31T03:24:28.289Z,9.80
2023-03-31T03:25:28.091Z,9.78
2023-03-31T03:26:28.094Z,9.77
2023-03-31T03:27:28.075Z,9.77
2023-03-31T03:28:28.057Z,9.80
2023-03-31T03:29:28.083Z,9.72
2023-03-31T03:30:28.034Z,9.73
2023-03-31T03:31:28.160Z,9.73
2023-03-31T03:32:28.091Z,9.66
2023-03-31T03:33:28.015Z,9.67
2023-03-31T03:34:28.310Z,9.65
2023-03-31T03:35:27.999Z,9.60
2023-03-31T03:36:28.037Z,9.62
2023-03-31T03:37:27.981Z,9.54
2023-03-31T03:38:27.969Z,9.57
2023-03-31T03:39:28.345Z,9.60
2023-03-31T03:40:27.944Z,9.52
2023-03-31T03:41:27.946Z,9.55
2023-03-31T03:42:27.931Z,9.55
2023-03-31T03:43:27.929Z,9.57
2023-03-31T03:44:28.673Z,9.59
2023-03-31T03:45:27.916Z,9.62
2023-03-31T03:46:27.912Z,9.57
2023-03-31T03:47:27.917Z,9.55
2023-03-31T03:48:27.882Z,9.55
2023-03-31T03:49:28.200Z,9.54
2023-03-31T03:50:27.851Z,9.52
2023-03-31T03:51:27.844Z,9.54
2023-03-31T03:52:27.833Z,9.51
2023-03-31T03:53:27.829Z,9.55
2023-03-31T03:54:28.084Z,9.57
2023-03-31T03:55:27.803Z,9.52
2023-03-31T03:56:27.789Z,9.54
2023-03-31T03:57:27.816Z,9.52
2023-03-31T03:58:27.786Z,9.54
2023-03-31T03:59:28.128Z,9.52
2023-03-31T04:00:27.749Z,9.51
2023-03-31T04:01:27.746Z,9.50
2023-03-31T04:02:28.155Z,9.52
2023-03-31T04:03:27.772Z,9.52
2023-03-31T04:04:28.050Z,9.50
2023-03-31T04:05:27.774Z,9.48
2023-03-31T04:06:27.703Z,9.47
2023-03-31T04:07:27.689Z,9.48
2023-03-31T04:08:27.674Z,9.47
2023-03-31T04:09:28.076Z,9.50
2023-03-31T04:10:27.653Z,9.50
2023-03-31T04:11:27.649Z,9.52
2023-03-31T04:12:27.640Z,9.52
2023-03-31T04:13:27.625Z,9.50
2023-03-31T04:14:28.421Z,9.52
2023-03-31T04:15:27.611Z,9.52
2023-03-31T04:16:27.631Z,9.54
2023-03-31T04:17:27.648Z,9.57
2023-03-31T04:18:27.582Z,9.55
2023-03-31T04:19:27.673Z,9.62
2023-03-31T04:20:27.558Z,9.55
2023-03-31T04:21:27.553Z,9.57
2023-03-31T04:22:27.537Z,9.59
2023-03-31T04:23:27.573Z,9.55
2023-03-31T04:24:27.535Z,9.55
2023-03-31T04:25:27.526Z,9.59
2023-03-31T04:26:27.498Z,9.55
2023-03-31T04:27:27.513Z,9.60
2023-03-31T04:28:27.481Z,9.62
2023-03-31T04:29:27.818Z,9.57
2023-03-31T04:30:27.413Z,9.63
2023-03-31T04:31:27.499Z,9.65
2023-03-31T04:32:27.459Z,9.65
2023-03-31T04:33:27.397Z,9.65
2023-03-31T04:34:27.395Z,9.65
2023-03-31T04:35:27.438Z,9.63
2023-03-31T04:36:27.403Z,9.66
2023-03-31T04:37:27.358Z,9.67
2023-03-31T04:38:27.524Z,9.70
2023-03-31T04:39:27.376Z,9.67
2023-03-31T04:40:27.319Z,9.70
2023-03-31T04:41:27.305Z,9.69
2023-03-31T04:42:27.292Z,9.70
2023-03-31T04:43:27.289Z,9.69
2023-03-31T04:44:27.391Z,9.67
2023-03-31T04:45:27.346Z,9.69
2023-03-31T04:46:27.299Z,9.67
2023-03-31T04:47:27.313Z,9.69
2023-03-31T04:48:27.238Z,9.70
2023-03-31T04:49:27.252Z,9.66
2023-03-31T04:50:27.222Z,9.67
2023-03-31T04:51:27.209Z,9.69
2023-03-31T04:52:27.194Z,9.66
2023-03-31T04:53:27.202Z,9.67
2023-03-31T04:54:27.201Z,9.67
2023-03-31T04:55:27.184Z,9.73
2023-03-31T04:56:27.170Z,9.72
2023-03-31T04:57:27.183Z,9.77
2023-03-31T04:58:27.142Z,9.77
2023-03-31T04:59:27.311Z,9.80
2023-03-31T05:00:27.129Z,9.83
2023-03-31T05:01:27.232Z,9.83
2023-03-31T05:02:27.168Z,9.80
2023-03-31T05:03:27.330Z,9.78
2023-03-31T05:04:27.108Z,9.81
2023-03-31T05:05:27.084Z,9.83
2023-03-31T05:06:27.067Z,9.81
2023-03-31T05:07:27.061Z,9.81
2023-03-31T05:08:27.067Z,9.80
2023-03-31T05:09:27.376Z,9.78
2023-03-31T05:10:27.036Z,9.85
2023-03-31T05:11:27.032Z,9.78
2023-03-31T05:12:27.014Z,9.83
2023-03-31T05:13:27.008Z,9.83
2023-03-31T05:14:27.319Z,9.83
2023-03-31T05:15:26.987Z,9.80
2023-03-31T05:16:26.990Z,9.81
2023-03-31T05:17:26.996Z,9.80
2023-03-31T05:18:26.969Z,9.80
2023-03-31T05:19:26.975Z,9.81
2023-03-31T05:20:26.936Z,9.84
2023-03-31T05:21:26.932Z,9.87
2023-03-31T05:22:26.919Z,9.85
2023-03-31T05:23:26.915Z,9.85
2023-03-31T05:24:27.577Z,9.90
2023-03-31T05:25:26.892Z,9.88
2023-03-31T05:26:26.880Z,9.90
2023-03-31T05:27:26.889Z,9.90
2023-03-31T05:28:26.864Z,9.88
2023-03-31T05:29:27.317Z,9.90
2023-03-31T05:30:26.850Z,9.90
2023-03-31T05:31:26.860Z,9.93
2023-03-31T05:32:26.844Z,9.96
2023-03-31T05:33:26.821Z,9.98
2023-03-31T05:34:26.821Z,9.94
2023-03-31T05:35:26.813Z,9.94
2023-03-31T05:36:26.815Z,9.99
2023-03-31T05:37:26.782Z,9.98
2023-03-31T05:38:26.771Z,10.01
2023-03-31T05:39:27.074Z,10.01
2023-03-31T05:40:26.760Z,10.02
2023-03-31T05:41:26.757Z,10.02
2023-03-31T05:42:26.746Z,10.03
2023-03-31T05:43:26.730Z,10.05
2023-03-31T05:44:27.029Z,10.05
2023-03-31T05:45:26.714Z,10.05
2023-03-31T05:46:26.746Z,10.05
2023-03-31T05:47:26.747Z,10.09
2023-03-31T05:48:26.672Z,10.03
2023-03-31T05:49:27.005Z,10.08
2023-03-31T05:50:26.659Z,10.06
2023-03-31T05:51:26.666Z,10.09
2023-03-31T05:52:26.643Z,10.06
2023-03-31T05:53:26.647Z,10.08
2023-03-31T05:54:26.960Z,10.05
2023-03-31T05:55:26.616Z,10.02
2023-03-31T05:56:26.600Z,10.03
2023-03-31T05:57:26.688Z,10.06
2023-03-31T05:58:26.613Z,10.05
2023-03-31T05:59:26.582Z,10.02
2023-03-31T06:00:26.592Z,10.03
2023-03-31T06:01:26.636Z,10.01
2023-03-31T06:02:26.744Z,9.99
2023-03-31T06:03:26.608Z,9.99
2023-03-31T06:04:26.580Z,9.96
2023-03-31T06:05:26.957Z,9.96
2023-03-31T06:06:26.516Z,9.99
2023-03-31T06:07:26.514Z,9.96
2023-03-31T06:08:26.492Z,9.94
2023-03-31T06:09:26.508Z,9.94
2023-03-31T06:10:26.490Z,9.90
2023-03-31T06:11:26.470Z,9.91
2023-03-31T06:12:26.456Z,9.88
2023-03-31T06:13:26.457Z,9.91
2023-03-31T06:14:26.452Z,9.91
2023-03-31T06:15:26.449Z,9.90
2023-03-31T06:16:26.556Z,9.93
2023-03-31T06:17:26.425Z,9.90
2023-03-31T06:18:26.409Z,9.90
2023-03-31T06:19:26.400Z,9.91
2023-03-31T06:20:28.286Z,9.93
2023-03-31T06:21:26.384Z,9.91
2023-03-31T06:22:26.370Z,9.93
2023-03-31T06:23:26.365Z,9.91
2023-03-31T06:24:26.355Z,9.88
2023-03-31T06:25:27.366Z,9.91
2023-03-31T06:26:26.354Z,9.88
2023-03-31T06:27:26.337Z,9.88
2023-03-31T06:28:26.318Z,9.88
2023-03-31T06:29:26.313Z,9.91
2023-03-31T06:30:26.323Z,9.87
2023-03-31T06:31:26.313Z,9.91
2023-03-31T06:32:26.311Z,9.90
2023-03-31T06:33:26.272Z,9.88
2023-03-31T06:34:26.267Z,9.93
2023-03-31T06:35:26.554Z,9.91
2023-03-31T06:36:26.256Z,9.93
2023-03-31T06:37:26.248Z,9.98
2023-03-31T06:38:26.226Z,9.93
2023-03-31T06:39:28.192Z,9.96
2023-03-31T06:40:26.660Z,9.96
2023-03-31T06:41:26.208Z,9.96
2023-03-31T06:42:26.235Z,10.01
2023-03-31T06:43:26.212Z,9.96
2023-03-31T06:44:26.178Z,9.98
2023-03-31T06:45:26.507Z,9.98
2023-03-31T06:46:26.202Z,10.01
2023-03-31T06:47:26.210Z,10.02
2023-03-31T06:48:26.143Z,10.08
2023-03-31T06:49:26.134Z,10.05
2023-03-31T06:50:26.480Z,10.03
2023-03-31T06:51:26.142Z,10.03
2023-03-31T06:52:26.110Z,10.03
2023-03-31T06:53:26.105Z,10.05
2023-03-31T06:54:26.095Z,10.06
2023-03-31T06:55:26.369Z,10.08
2023-03-31T06:56:26.068Z,10.05
2023-03-31T06:57:26.087Z,10.02
2023-03-31T06:58:27.725Z,10.05
2023-03-31T06:59:26.368Z,10.06
2023-03-31T07:00:26.429Z,10.03
2023-03-31T07:01:26.107Z,10.05
2023-03-31T07:02:26.051Z,10.06
2023-03-31T07:03:26.115Z,10.03
2023-03-31T07:04:26.002Z,10.05
2023-03-31T07:05:26.510Z,10.09
2023-03-31T07:06:26.000Z,10.03
2023-03-31T07:07:25.988Z,10.03
2023-03-31T07:08:25.964Z,10.03
2023-03-31T07:09:25.978Z,10.02
2023-03-31T07:10:26.385Z,10.01
2023-03-31T07:11:25.973Z,10.01
2023-03-31T07:12:25.942Z,9.96
2023-03-31T07:13:26.168Z,9.94
2023-03-31T07:14:25.918Z,9.91
2023-03-31T07:15:25.934Z,9.85
2023-03-31T07:16:25.962Z,9.83
2023-03-31T07:17:25.936Z,9.80
2023-03-31T07:18:25.951Z,9.78
2023-03-31T07:19:25.868Z,9.73
2023-03-31T07:20:26.380Z,9.78
2023-03-31T07:21:25.853Z,9.73
2023-03-31T07:22:25.874Z,9.66
2023-03-31T07:23:25.856Z,9.69
2023-03-31T07:24:25.830Z,9.67
2023-03-31T07:25:26.329Z,9.67
2023-03-31T07:26:25.822Z,9.66
2023-03-31T07:27:26.450Z,9.62
2023-03-31T07:28:25.789Z,9.60
2023-03-31T07:29:25.774Z,9.62
2023-03-31T07:30:26.082Z,9.57
2023-03-31T07:31:25.775Z,9.57
2023-03-31T07:32:27.707Z,9.57
2023-03-31T07:33:25.743Z,9.55
2023-03-31T07:34:25.743Z,9.55
2023-03-31T07:35:26.219Z,9.52
2023-03-31T07:36:25.769Z,9.50
2023-03-31T07:37:25.708Z,9.52
2023-03-31T07:38:25.780Z,9.48
2023-03-31T07:39:25.704Z,9.51
2023-03-31T07:40:26.135Z,9.50
2023-03-31T07:41:25.682Z,9.51
2023-03-31T07:42:25.681Z,9.47
2023-03-31T07:43:25.664Z,9.47
2023-03-31T07:44:25.656Z,9.47
2023-03-31T07:45:26.012Z,9.47
2023-03-31T07:46:25.660Z,9.47
2023-03-31T07:47:25.653Z,9.45
2023-03-31T07:48:25.647Z,9.45
2023-03-31T07:49:25.611Z,9.44
2023-03-31T07:50:25.940Z,9.44
2023-03-31T07:51:25.579Z,9.45
2023-03-31T07:52:25.578Z,9.45
2023-03-31T07:53:25.562Z,9.45
2023-03-31T07:54:25.561Z,9.41
2023-03-31T07:55:25.886Z,9.41
2023-03-31T07:56:25.539Z,9.40
2023-03-31T07:57:25.547Z,9.40
2023-03-31T07:58:25.548Z,9.41
2023-03-31T07:59:25.522Z,9.41
2023-03-31T08:00:25.642Z,9.36
2023-03-31T08:01:25.536Z,9.40
2023-03-31T08:02:25.650Z,9.36
2023-03-31T08:03:25.477Z,9.44
2023-03-31T08:04:25.480Z,9.42
2023-03-31T08:05:25.722Z,9.44
2023-03-31T08:06:25.484Z,9.42
2023-03-31T08:07:25.475Z,9.40
2023-03-31T08:08:25.498Z,9.42
2023-03-31T08:09:25.439Z,9.40
2023-03-31T08:10:25.445Z,9.42
2023-03-31T08:11:25.406Z,9.36
2023-03-31T08:12:25.420Z,9.40
2023-03-31T08:13:25.419Z,9.36
2023-03-31T08:14:40.022Z,9.41
2023-03-31T08:15:25.408Z,9.33
2023-03-31T08:16:25.428Z,9.30
2023-03-31T08:17:25.469Z,9.34
2023-03-31T08:18:25.346Z,9.30
2023-03-31T08:19:25.330Z,9.27
2023-03-31T08:20:25.648Z,9.27
2023-03-31T08:21:25.317Z,9.27
2023-03-31T08:22:25.322Z,9.26
2023-03-31T08:23:25.307Z,9.22
2023-03-31T08:24:25.302Z,9.23
2023-03-31T08:25:25.286Z,9.24
2023-03-31T08:26:26.055Z,9.24
2023-03-31T08:27:25.265Z,9.24
2023-03-31T08:28:25.257Z,9.22
2023-03-31T08:29:25.251Z,9.19
2023-03-31T08:30:25.253Z,9.16
2023-03-31T08:31:27.185Z,9.16
2023-03-31T08:32:25.265Z,9.18
2023-03-31T08:33:25.217Z,9.15
2023-03-31T08:34:25.228Z,9.14
2023-03-31T08:35:25.213Z,9.12
2023-03-31T08:36:25.254Z,9.15
2023-03-31T08:37:25.188Z,9.15
2023-03-31T08:38:25.176Z,9.16
2023-03-31T08:39:25.160Z,9.11
2023-03-31T08:40:25.175Z,9.11
2023-03-31T08:41:26.108Z,9.12
2023-03-31T08:42:25.133Z,9.12
2023-03-31T08:43:25.894Z,9.15
2023-03-31T08:44:25.116Z,9.12
2023-03-31T08:45:25.117Z,9.16
2023-03-31T08:46:25.481Z,9.15
2023-03-31T08:47:25.139Z,9.19
2023-03-31T08:48:25.077Z,9.24
2023-03-31T08:49:25.063Z,9.26
2023-03-31T08:50:25.057Z,9.30
2023-03-31T08:51:25.372Z,9.32
2023-03-31T08:52:25.051Z,9.32
2023-03-31T08:53:25.046Z,9.30
2023-03-31T08:54:25.017Z,9.34
2023-03-31T08:55:25.007Z,9.33
2023-03-31T08:56:25.611Z,9.34
2023-03-31T08:57:25.066Z,9.36
2023-03-31T08:58:25.005Z,9.41
2023-03-31T08:59:24.985Z,9.32
2023-03-31T09:00:24.975Z,9.37
2023-03-31T09:01:25.391Z,9.36
2023-03-31T09:02:25.211Z,9.37
2023-03-31T09:03:24.994Z,9.40
2023-03-31T09:04:25.006Z,9.36
2023-03-31T09:05:24.924Z,9.40
2023-03-31T09:06:24.934Z,9.37
2023-03-31T09:07:24.898Z,9.37
2023-03-31T09:08:24.897Z,9.36
2023-03-31T09:09:26.704Z,9.36
2023-03-31T09:10:24.876Z,9.34
2023-03-31T09:11:25.778Z,9.32
2023-03-31T09:12:24.866Z,9.33
2023-03-31T09:13:24.842Z,9.34
2023-03-31T09:14:24.853Z,9.37
2023-03-31T09:15:24.831Z,9.33
2023-03-31T09:16:25.094Z,9.30
2023-03-31T09:17:24.849Z,9.29
2023-03-31T09:18:25.448Z,9.29
2023-03-31T09:19:24.802Z,9.27
2023-03-31T09:20:24.828Z,9.26
2023-03-31T09:21:24.962Z,9.26
2023-03-31T09:22:24.767Z,9.24
2023-03-31T09:23:24.750Z,9.24
2023-03-31T09:24:24.779Z,9.24
2023-03-31T09:25:24.749Z,9.19
2023-03-31T09:26:25.635Z,9.23
2023-03-31T09:27:24.712Z,9.26
2023-03-31T09:28:24.707Z,9.22
2023-03-31T09:29:24.696Z,9.23
2023-03-31T09:30:24.694Z,9.26
2023-03-31T09:31:25.053Z,9.23
2023-03-31T09:32:24.762Z,9.22
2023-03-31T09:33:24.724Z,9.18
2023-03-31T09:34:24.656Z,9.22
2023-03-31T09:35:24.682Z,9.24
2023-03-31T09:36:25.047Z,9.26
2023-03-31T09:37:24.636Z,9.27
2023-03-31T09:38:24.618Z,9.36
2023-03-31T09:39:24.631Z,9.34
2023-03-31T09:40:24.612Z,9.36
2023-03-31T09:41:25.397Z,9.33
2023-03-31T09:42:24.576Z,9.40
2023-03-31T09:43:24.599Z,9.34
2023-03-31T09:44:24.589Z,9.42
2023-03-31T09:45:24.554Z,9.37
2023-03-31T09:46:24.635Z,9.41
2023-03-31T09:47:24.569Z,9.48
2023-03-31T09:48:24.531Z,9.48
2023-03-31T09:49:24.531Z,9.55
2023-03-31T09:50:25.139Z,9.62
2023-03-31T09:51:24.993Z,9.69
2023-03-31T09:52:24.547Z,9.73
2023-03-31T09:53:24.512Z,9.78
2023-03-31T09:54:24.477Z,9.85
2023-03-31T09:55:38.268Z,9.93
2023-03-31T09:56:25.282Z,10.02
2023-03-31T09:57:24.611Z,10.10
2023-03-31T09:58:24.446Z,10.20
2023-03-31T09:59:24.439Z,10.36
2023-03-31T10:00:24.421Z,10.45
2023-03-31T10:01:24.701Z,10.52
2023-03-31T10:02:24.446Z,10.64
2023-03-31T10:03:24.390Z,10.73
2023-03-31T10:04:24.408Z,10.85
2023-03-31T10:05:24.388Z,10.94
2023-03-31T10:06:24.699Z,11.03
2023-03-31T10:07:24.365Z,11.11
2023-03-31T10:08:24.368Z,11.08
2023-03-31T10:09:24.338Z,11.03
2023-03-31T10:10:24.340Z,11.04
2023-03-31T10:11:24.375Z,11.05
2023-03-31T10:12:24.388Z,11.12
2023-03-31T10:13:24.311Z,11.16
2023-03-31T10:14:24.306Z,11.28
2023-03-31T10:15:24.298Z,11.45
2023-03-31T10:16:24.738Z,11.67
2023-03-31T10:17:24.326Z,11.79
2023-03-31T10:18:24.333Z,11.95
2023-03-31T10:19:24.256Z,12.11
2023-03-31T10:20:24.268Z,12.25
2023-03-31T10:21:24.364Z,12.33
2023-03-31T10:22:24.240Z,12.46
2023-03-31T10:23:24.232Z,12.36
2023-03-31T10:24:24.260Z,12.41
2023-03-31T10:25:24.187Z,12.59
2023-03-31T10:26:24.901Z,12.72
2023-03-31T10:27:24.172Z,12.69
2023-03-31T10:28:24.159Z,12.83
2023-03-31T10:29:24.156Z,12.77
2023-03-31T10:30:24.158Z,12.80
2023-03-31T10:31:24.157Z,12.77
2023-03-31T10:32:24.592Z,12.68
2023-03-31T10:33:24.139Z,12.55
2023-03-31T10:34:24.085Z,12.46
2023-03-31T10:35:24.085Z,12.40
2023-03-31T10:36:24.090Z,12.32
2023-03-31T10:37:24.411Z,12.17
2023-03-31T10:38:24.058Z,12.07
2023-03-31T10:39:24.045Z,12.05
2023-03-31T10:40:24.035Z,12.04
2023-03-31T10:41:24.059Z,12.10
2023-03-31T10:42:24.371Z,12.14
2023-03-31T10:43:23.992Z,12.18
2023-03-31T10:44:23.993Z,12.17
2023-03-31T10:45:36.548Z,12.22
2023-03-31T10:46:24.005Z,12.22
2023-03-31T10:47:24.371Z,12.28
2023-03-31T10:48:23.959Z,12.41
2023-03-31T10:49:23.954Z,12.44
2023-03-31T10:50:23.951Z,12.55
2023-03-31T10:51:23.908Z,12.61
2023-03-31T10:52:24.273Z,12.53
2023-03-31T10:53:23.875Z,12.61
2023-03-31T10:54:23.882Z,12.68
2023-03-31T10:55:23.859Z,12.71
2023-03-31T10:56:23.850Z,12.76
2023-03-31T10:57:23.889Z,12.72
2023-03-31T10:58:23.834Z,12.88
2023-03-31T10:59:23.823Z,12.88
2023-03-31T11:00:23.836Z,13.01
2023-03-31T11:01:23.810Z,13.19
2023-03-31T11:02:23.868Z,13.26
2023-03-31T11:03:23.863Z,13.27
2023-03-31T11:04:23.770Z,13.40
2023-03-31T11:05:23.812Z,13.45
2023-03-31T11:06:23.804Z,13.49
2023-03-31T11:07:24.063Z,13.46
2023-03-31T11:08:23.739Z,13.40
2023-03-31T11:09:23.718Z,13.40
2023-03-31T11:10:23.740Z,13.24
2023-03-31T11:11:23.712Z,13.20
2023-03-31T11:12:23.702Z,13.14
2023-03-31T11:13:23.670Z,13.14
2023-03-31T11:14:23.663Z,13.19
2023-03-31T11:15:23.656Z,13.32
2023-03-31T11:16:23.696Z,13.45
2023-03-31T11:17:23.822Z,13.47
2023-03-31T11:18:23.631Z,13.55
2023-03-31T11:19:23.617Z,13.36
2023-03-31T11:20:23.599Z,13.19
2023-03-31T11:21:23.582Z,13.29
2023-03-31T11:22:25.551Z,13.46
2023-03-31T11:23:23.567Z,13.55
2023-03-31T11:24:23.558Z,13.60
2023-03-31T11:25:23.574Z,13.65
2023-03-31T11:26:23.536Z,13.76
2023-03-31T11:27:23.839Z,13.58
2023-03-31T11:28:23.498Z,13.53
2023-03-31T11:29:23.589Z,13.39
2023-03-31T11:30:23.478Z,13.26
2023-03-31T11:31:23.481Z,13.30
2023-03-31T11:32:23.476Z,13.32
2023-03-31T11:33:23.478Z,13.43
2023-03-31T11:34:23.796Z,13.49
2023-03-31T11:35:23.442Z,13.58
2023-03-31T11:36:23.437Z,13.55
2023-03-31T11:37:23.399Z,13.58
2023-03-31T11:38:24.001Z,13.57
2023-03-31T11:39:23.404Z,13.65
2023-03-31T11:40:23.379Z,13.68
2023-03-31T11:41:23.349Z,13.79
2023-03-31T11:42:23.345Z,13.79
2023-03-31T11:43:23.344Z,13.83
2023-03-31T11:44:23.327Z,13.85
2023-03-31T11:45:23.306Z,13.78
2023-03-31T11:46:23.330Z,13.78
2023-03-31T11:47:23.654Z,13.73
2023-03-31T11:48:23.257Z,13.72
2023-03-31T11:49:23.257Z,13.71
2023-03-31T11:50:23.237Z,13.64
2023-03-31T11:51:23.230Z,13.65
2023-03-31T11:52:23.222Z,13.68
2023-03-31T11:53:23.211Z,13.65
2023-03-31T11:54:23.241Z,13.60
2023-03-31T11:55:23.191Z,13.63
2023-03-31T11:56:23.162Z,13.68
2023-03-31T11:57:23.365Z,13.71
2023-03-31T11:58:23.141Z,13.71
2023-03-31T11:59:23.155Z,13.75
2023-03-31T12:00:23.116Z,13.79
2023-03-31T12:01:23.102Z,13.82
2023-03-31T12:02:23.446Z,13.91
2023-03-31T12:03:23.187Z,13.97
2023-03-31T12:04:23.066Z,13.97
2023-03-31T12:05:23.081Z,13.93
2023-03-31T12:06:23.114Z,13.93
2023-03-31T12:07:23.358Z,13.96
2023-03-31T12:08:23.044Z,13.97
2023-03-31T12:09:23.019Z,14.00
2023-03-31T12:10:22.987Z,13.96
2023-03-31T12:11:22.977Z,14.00
2023-03-31T12:12:23.146Z,14.01
2023-03-31T12:13:22.969Z,14.04
2023-03-31T12:14:22.934Z,14.00
2023-03-31T12:15:22.940Z,14.05
2023-03-31T12:16:22.955Z,14.01
2023-03-31T12:17:23.176Z,14.08
2023-03-31T12:18:22.918Z,14.12
2023-03-31T12:19:22.875Z,14.11
2023-03-31T12:20:22.867Z,14.15
2023-03-31T12:21:22.858Z,14.12
2023-03-31T12:22:23.006Z,14.18
2023-03-31T12:23:22.833Z,14.13
2023-03-31T12:24:22.813Z,14.16
2023-03-31T12:25:22.830Z,14.13
2023-03-31T12:26:22.825Z,14.18
2023-03-31T12:27:23.144Z,14.34
2023-03-31T12:28:22.801Z,14.56
2023-03-31T12:29:22.757Z,14.74
2023-03-31T12:30:22.744Z,14.90
2023-03-31T12:31:22.762Z,14.92
2023-03-31T12:32:22.812Z,14.92
2023-03-31T12:33:22.715Z,14.79
2023-03-31T12:34:22.696Z,14.83
2023-03-31T12:35:22.717Z,14.85
2023-03-31T12:36:22.743Z,14.97
2023-03-31T12:37:22.686Z,15.19
2023-03-31T12:38:22.641Z,15.29
2023-03-31T12:39:22.629Z,15.32
2023-03-31T12:40:22.620Z,15.27
2023-03-31T12:41:22.611Z,15.22
2023-03-31T12:42:25.045Z,15.12
2023-03-31T12:43:22.633Z,14.96
2023-03-31T12:44:22.573Z,14.87
2023-03-31T12:45:22.572Z,14.78
2023-03-31T12:46:22.620Z,14.70
2023-03-31T12:47:22.971Z,14.58
2023-03-31T12:48:22.526Z,14.40
2023-03-31T12:49:22.523Z,14.26
2023-03-31T12:50:22.509Z,14.23
2023-03-31T12:51:22.498Z,14.15
2023-03-31T12:52:22.506Z,14.01
2023-03-31T12:53:22.477Z,13.88
2023-03-31T12:54:22.465Z,13.72
2023-03-31T12:55:22.465Z,13.61
2023-03-31T12:56:22.434Z,13.43
2023-03-31T12:57:22.574Z,13.20
2023-03-31T12:58:22.436Z,13.05
2023-03-31T12:59:22.404Z,12.95
2023-03-31T13:00:22.389Z,12.80
2023-03-31T13:01:22.411Z,12.80
2023-03-31T13:02:22.861Z,12.86
2023-03-31T13:03:22.394Z,12.96
2023-03-31T13:04:22.348Z,13.05
2023-03-31T13:05:22.337Z,13.08
2023-03-31T13:06:22.317Z,13.05
2023-03-31T13:07:28.166Z,13.05
2023-03-31T13:08:22.314Z,13.06
2023-03-31T13:09:22.281Z,13.05